Time;durP1;ratioP1;P1;durP2;ratioP2;P2;SDS_P1;SDS_P2;PMS_P1;PMS_P2;Temp;Humidity;BMP_temperature;BMP_pressure;BME280_temperature;BME280_humidity;BME280_pressure;Samples;Min_cycle;Max_cycle;Signal;HPM_P1;HPM_P2
2021/03/15 00:00:49;;;;;;;19.45;4.72;;;;;;;8.88;84.10;101355.06;4851079;29;20058;-83
2021/03/15 00:03:20;;;;;;;21.83;4.80;;;;;;;8.85;84.40;101352.94;4854721;29;20042;-83
2021/03/15 00:05:56;;;;;;;20.00;5.60;;;;;;;8.83;84.67;101363.50;4855669;29;20101;-82
2021/03/15 00:08:23;;;;;;;30.63;6.18;;;;;;;8.83;84.46;101363.50;4858995;29;20045;-83
2021/03/15 00:10:50;;;;;;;16.38;5.10;;;;;;;8.80;84.85;101361.38;4842309;29;20041;-83
2021/03/15 00:13:18;;;;;;;20.25;5.40;;;;;;;8.75;85.04;101372.56;4822613;29;20074;-85
2021/03/15 00:15:46;;;;;;;19.27;5.20;;;;;;;8.73;85.05;101362.97;4810158;29;20051;-85
2021/03/15 00:18:13;;;;;;;20.92;5.68;;;;;;;8.63;85.63;101364.03;4806371;29;20085;-83
2021/03/15 00:20:40;;;;;;;25.27;5.80;;;;;;;8.62;85.72;101376.22;4853875;29;20040;-85
2021/03/15 00:23:06;;;;;;;23.67;5.45;;;;;;;8.60;85.87;101366.63;4840828;29;20038;-83
2021/03/15 00:25:32;;;;;;;17.15;6.22;;;;;;;8.59;86.00;101363.06;4839685;29;20085;-83
2021/03/15 00:27:59;;;;;;;22.88;5.63;;;;;;;8.60;85.81;101359.19;4819053;29;20087;-84
2021/03/15 00:30:25;;;;;;;23.60;8.43;;;;;;;8.57;86.11;101354.28;4821103;29;20455;-84
2021/03/15 00:32:52;;;;;;;20.60;5.55;;;;;;;8.57;86.19;101366.16;4836705;29;20137;-83
2021/03/15 00:35:20;;;;;;;17.75;6.05;;;;;;;8.56;85.72;101364.50;4808682;29;20078;-83
2021/03/15 00:37:47;;;;;;;23.10;6.30;;;;;;;8.55;86.00;101346.31;4831879;29;20239;-82
2021/03/15 00:40:17;;;;;;;21.83;5.93;;;;;;;8.54;86.25;101360.44;4816584;29;20155;-84
2021/03/15 00:42:48;;;;;;;22.25;6.15;;;;;;;8.56;86.34;101374.72;4806460;29;20043;-84
2021/03/15 00:45:16;;;;;;;23.40;5.07;;;;;;;8.53;86.27;101370.66;4824735;29;20064;-83
2021/03/15 00:47:42;;;;;;;16.38;4.55;;;;;;;8.53;86.18;101369.84;4819320;29;20074;-83
2021/03/15 00:50:15;;;;;;;20.52;4.95;;;;;;;8.53;86.12;101364.31;4826028;29;20054;-83
2021/03/15 00:52:42;;;;;;;13.00;3.88;;;;;;;8.52;85.97;101368.22;4829347;29;20050;-83
2021/03/15 00:55:08;;;;;;;13.63;3.72;;;;;;;8.50;86.16;101375.97;4830692;29;20043;-83
2021/03/15 00:57:35;;;;;;;23.73;7.05;;;;;;;8.51;86.03;101378.44;4810139;29;20055;-83
2021/03/15 01:00:01;;;;;;;19.33;5.03;;;;;;;8.50;86.22;101387.03;4818040;29;20057;-84
2021/03/15 01:02:31;;;;;;;14.07;4.25;;;;;;;8.49;86.27;101389.00;4841794;29;20573;-84
2021/03/15 01:04:58;;;;;;;14.40;3.65;;;;;;;8.49;86.27;101390.94;4840994;29;20398;-82
2021/03/15 01:07:24;;;;;;;17.60;3.95;;;;;;;8.50;86.29;101392.53;4842331;29;20101;-83
2021/03/15 01:09:51;;;;;;;17.15;4.45;;;;;;;8.50;86.72;101389.78;4837934;29;20100;-83
2021/03/15 01:12:17;;;;;;;12.52;4.13;;;;;;;8.49;86.55;101393.69;4820739;29;20145;-84
2021/03/15 01:14:43;;;;;;;19.05;4.85;;;;;;;8.48;86.92;101389.28;4829353;29;20046;-83
2021/03/15 01:17:12;;;;;;;17.13;4.97;;;;;;;8.48;86.91;101397.56;4823305;29;20053;-85
2021/03/15 01:19:38;;;;;;;16.05;3.78;;;;;;;8.44;87.38;101396.59;4844576;29;20054;-83
2021/03/15 01:22:05;;;;;;;17.05;4.60;;;;;;;8.44;87.49;101404.84;4830762;29;20070;-85
2021/03/15 01:24:31;;;;;;;16.17;5.07;;;;;;;8.44;87.49;101408.44;4812590;29;20074;-85
2021/03/15 01:26:57;;;;;;;9.10;4.43;;;;;;;8.43;87.71;101405.97;4823846;29;20068;-85
2021/03/15 01:29:24;;;;;;;21.70;4.68;;;;;;;8.43;87.63;101403.22;4810448;29;20147;-85
2021/03/15 01:31:51;;;;;;;11.73;3.20;;;;;;;8.44;87.63;101405.69;4809224;29;20058;-85
2021/03/15 01:34:20;;;;;;;21.13;4.95;;;;;;;8.44;87.37;101400.16;4810200;29;20062;-86
2021/03/15 01:37:01;;;;;;;10.73;3.13;;;;;;;8.41;87.81;101405.47;4835997;29;20053;-86
2021/03/15 01:39:27;;;;;;;11.02;2.97;;;;;;;8.41;87.49;101405.47;4832076;29;20101;-85
2021/03/15 01:41:53;;;;;;;11.77;2.97;;;;;;;8.40;87.73;101410.19;4821160;29;20111;-84
2021/03/15 01:44:20;;;;;;;11.32;2.50;;;;;;;8.40;87.73;101415.69;4825039;29;20043;-85
2021/03/15 01:46:46;;;;;;;10.35;2.55;;;;;;;8.41;87.89;101414.59;4837247;29;20058;-85
2021/03/15 01:49:12;;;;;;;9.32;3.72;;;;;;;8.42;87.69;101423.66;4807710;29;20058;-84
2021/03/15 01:51:40;;;;;;;10.43;3.17;;;;;;;8.42;87.75;101430.00;4820707;29;20054;-84
2021/03/15 01:54:08;;;;;;;11.30;3.25;;;;;;;8.42;87.90;101423.66;4819815;29;20051;-84
2021/03/15 01:56:36;;;;;;;9.50;2.72;;;;;;;8.40;87.94;101428.66;4824162;29;20054;-83
2021/03/15 01:59:03;;;;;;;12.70;2.65;;;;;;;8.38;87.98;101419.91;4828715;29;20053;-84
2021/03/15 02:01:30;;;;;;;8.32;2.40;;;;;;;8.33;88.06;101423.63;4841842;29;20454;-85
2021/03/15 02:03:56;;;;;;;6.82;2.58;;;;;;;8.35;88.06;101424.09;4822556;29;20127;-84
2021/03/15 02:06:23;;;;;;;14.27;2.97;;;;;;;8.34;88.05;101427.97;4824823;29;20230;-85
2021/03/15 02:08:49;;;;;;;9.65;2.55;;;;;;;8.33;88.18;101425.53;4811255;29;20140;-84
2021/03/15 02:11:30;;;;;;;7.38;2.42;;;;;;;8.32;88.42;101432.19;4864934;29;20577;-85
2021/03/15 02:14:05;;;;;;;13.25;2.20;;;;;;;8.33;88.06;101437.41;4841364;29;20114;-84
2021/03/15 02:16:41;;;;;;;7.55;2.25;;;;;;;8.35;88.06;101448.13;4811570;29;20511;-84
2021/03/15 02:19:39;;;;;;;7.38;2.20;;;;;;;8.35;88.21;101439.84;4843182;29;20046;-85
2021/03/15 02:22:17;;;;;;;4.80;1.50;;;;;;;8.36;88.23;101449.75;4852965;29;20049;-84
2021/03/15 02:25:16;;;;;;;5.43;1.75;;;;;;;8.37;88.69;101440.34;4844876;29;20078;-84
2021/03/15 02:28:21;;;;;;;4.18;1.73;;;;;;;8.37;88.53;101440.34;4829877;29;20655;-85
2021/03/15 02:31:14;;;;;;;8.25;2.33;;;;;;;8.36;88.46;101433.19;4829945;29;20149;-84
2021/03/15 02:34:03;;;;;;;7.30;2.30;;;;;;;8.38;88.58;101440.03;4844528;29;20054;-85
2021/03/15 02:36:35;;;;;;;8.23;2.45;;;;;;;8.37;88.43;101432.88;4844292;29;20645;-83
2021/03/15 02:39:05;;;;;;;12.40;3.65;;;;;;;8.35;88.69;101428.81;4834237;29;20129;-84
2021/03/15 02:41:36;;;;;;;9.77;4.07;;;;;;;8.38;88.56;101439.22;4828809;29;20429;-84
2021/03/15 02:44:08;;;;;;;17.00;4.35;;;;;;;8.38;88.29;101444.72;4844332;29;20133;-83
2021/03/15 02:46:37;;;;;;;13.52;4.18;;;;;;;8.36;88.64;101441.47;4858827;29;20056;-84
2021/03/15 02:49:11;;;;;;;16.50;4.05;;;;;;;8.36;88.77;101447.81;4829171;29;20053;-85
2021/03/15 02:51:39;;;;;;;;;;;;;;;8.36;89.07;101435.97;4843017;29;20053;-84
2021/03/15 02:54:08;;;;;;;26.23;5.40;;;;;;;8.35;88.33;101435.13;4843891;29;19935;-83
2021/03/15 02:56:45;;;;;;;29.80;4.60;;;;;;;8.30;88.59;101426.16;4829425;29;20428;-85
2021/03/15 02:59:13;;;;;;;18.83;5.10;;;;;;;8.31;88.31;101436.88;4843785;29;20145;-84
2021/03/15 03:01:40;;;;;;;20.98;4.35;;;;;;;8.33;88.25;101436.59;4857641;29;20710;-83
2021/03/15 03:04:08;;;;;;;25.08;5.30;;;;;;;8.34;88.35;101435.47;4841762;29;20126;-85
2021/03/15 03:06:37;;;;;;;25.25;4.88;;;;;;;8.35;88.07;101429.63;4860344;29;20050;-84
2021/03/15 03:09:06;;;;;;;16.55;4.30;;;;;;;8.37;87.90;101423.78;4843656;29;20058;-84
2021/03/15 03:11:33;;;;;;;21.65;4.72;;;;;;;8.35;87.89;101437.06;4839865;29;20137;-84
2021/03/15 03:14:02;;;;;;;15.70;4.30;;;;;;;8.36;87.91;101430.44;4844664;29;20060;-83
2021/03/15 03:16:34;;;;;;;20.05;4.53;;;;;;;8.38;87.67;101439.22;4828325;29;20053;-84
2021/03/15 03:19:01;;;;;;;27.23;5.25;;;;;;;8.36;87.52;101436.78;4858437;29;20042;-84
2021/03/15 03:21:29;;;;;;;21.35;4.45;;;;;;;8.35;87.43;101446.19;4831960;29;20098;-83
2021/03/15 03:23:58;;;;;;;20.17;4.95;;;;;;;8.33;87.54;101439.34;4858697;29;20049;-84
2021/03/15 03:26:26;;;;;;;25.10;6.55;;;;;;;8.35;87.47;101445.34;4843753;29;20046;-84
2021/03/15 03:28:54;;;;;;;18.13;4.43;;;;;;;8.36;87.52;101452.50;4842481;29;20046;-84
2021/03/15 03:31:25;;;;;;;24.83;5.22;;;;;;;8.37;87.13;101459.66;4839164;29;20054;-85
2021/03/15 03:33:52;;;;;;;11.45;3.85;;;;;;;8.33;87.09;101444.84;4846067;29;20455;-84
2021/03/15 03:36:18;;;;;;;19.17;4.95;;;;;;;8.31;87.23;101450.66;4831956;29;20509;-84
2021/03/15 03:38:45;;;;;;;24.75;4.05;;;;;;;8.29;87.00;101449.34;4850967;29;20117;-84
2021/03/15 03:41:12;;;;;;;22.38;4.50;;;;;;;8.27;87.08;101446.91;4859258;29;20049;-85
2021/03/15 03:43:39;;;;;;;24.23;3.88;;;;;;;8.25;86.97;101442.81;4836884;29;20449;-85
2021/03/15 03:46:09;;;;;;;12.88;3.97;;;;;;;8.20;87.10;101457.56;4840496;29;20073;-85
2021/03/15 03:48:36;;;;;;;26.42;4.55;;;;;;;8.22;86.96;101454.47;4843892;29;20058;-85
2021/03/15 03:51:04;;;;;;;22.00;3.95;;;;;;;8.24;86.85;101457.72;4830852;29;20045;-84
2021/03/15 03:53:44;;;;;;;14.55;4.25;;;;;;;8.22;86.94;101465.50;4832616;29;20121;-84
2021/03/15 03:56:16;;;;;;;22.25;7.03;;;;;;;8.24;87.01;101455.78;4843202;29;20061;-84
2021/03/15 03:58:47;;;;;;;22.73;4.45;;;;;;;8.26;86.85;101470.06;4851562;29;20098;-84
2021/03/15 04:01:14;;;;;;;13.30;4.35;;;;;;;8.23;86.85;101462.44;4844264;29;20551;-85
2021/03/15 04:03:51;;;;;;;19.85;3.83;;;;;;;8.24;86.78;101466.81;4850388;29;20106;-84
2021/03/15 04:06:19;;;;;;;10.30;3.42;;;;;;;8.21;86.71;101469.38;4847544;29;20045;-83
2021/03/15 04:09:05;;;;;;;19.63;4.70;;;;;;;8.23;86.57;101475.41;4858287;29;20057;-84
2021/03/15 04:11:34;;;;;;;19.85;4.85;;;;;;;8.24;86.80;101466.81;4853038;29;20079;-84
2021/03/15 04:14:03;;;;;;;12.10;3.20;;;;;;;8.20;86.77;101478.81;4858386;29;20121;-84
2021/03/15 04:16:32;;;;;;;15.85;3.75;;;;;;;8.19;86.55;101479.91;4847045;29;20053;-84
2021/03/15 04:19:04;;;;;;;17.45;5.70;;;;;;;8.18;86.66;101483.81;4866464;29;20111;-85
2021/03/15 04:21:32;;;;;;;;;;;;;;;8.14;86.80;101482.78;4863313;29;20059;-84
2021/03/15 04:24:01;;;;;;;14.43;3.42;;;;;;;8.15;86.48;101484.44;4863434;29;19951;-83
2021/03/15 04:26:32;;;;;;;19.35;3.92;;;;;;;8.12;86.55;101496.09;4830741;29;20102;-84
2021/03/15 04:29:00;;;;;;;16.40;3.78;;;;;;;8.10;86.35;101498.34;4852424;29;20064;-84
2021/03/15 04:31:27;;;;;;;20.27;4.38;;;;;;;8.07;85.84;101491.50;4861567;29;20050;-85
2021/03/15 04:33:55;;;;;;;15.73;5.13;;;;;;;8.06;86.26;101489.88;4862973;29;20049;-84
2021/03/15 04:36:23;;;;;;;16.50;3.47;;;;;;;8.05;86.28;101492.94;4862483;29;20053;-84
2021/03/15 04:38:50;;;;;;;14.18;2.95;;;;;;;8.03;86.20;101496.00;4855727;29;20098;-84
2021/03/15 04:41:17;;;;;;;12.73;2.92;;;;;;;7.97;86.25;101494.47;4850983;29;20573;-84
2021/03/15 04:43:48;;;;;;;11.90;3.42;;;;;;;7.94;86.22;101495.13;4846194;29;20053;-84
2021/03/15 04:46:17;;;;;;;14.60;3.92;;;;;;;7.90;85.92;101500.41;4830443;29;20082;-84
2021/03/15 04:48:45;;;;;;;13.05;3.60;;;;;;;7.86;86.00;101510.41;4845878;29;20049;-82
2021/03/15 04:51:11;;;;;;;9.90;2.28;;;;;;;7.82;85.95;101508.59;4845595;29;20049;-84
2021/03/15 04:53:40;;;;;;;15.68;4.00;;;;;;;7.75;86.08;101509.03;4846462;29;20049;-85
2021/03/15 04:56:13;;;;;;;18.65;3.38;;;;;;;7.72;86.01;101526.19;4861961;29;20073;-84
2021/03/15 04:58:42;;;;;;;14.85;3.83;;;;;;;7.66;86.27;101524.63;4830704;29;20468;-84
2021/03/15 05:01:09;;;;;;;19.60;3.63;;;;;;;7.60;86.33;101533.31;4861534;29;20053;-84
2021/03/15 05:03:38;;;;;;;25.15;3.72;;;;;;;7.61;86.04;101540.44;4846325;29;20470;-84
2021/03/15 05:06:07;;;;;;;19.60;3.10;;;;;;;7.56;86.07;101541.38;4861616;29;20094;-85
2021/03/15 05:08:40;;;;;;;8.05;2.60;;;;;;;7.55;86.48;101536.97;4861138;29;20489;-84
2021/03/15 05:11:09;;;;;;;23.52;5.20;;;;;;;7.50;86.46;101541.78;4843848;29;20077;-84
2021/03/15 05:13:38;;;;;;;20.25;3.35;;;;;;;7.46;86.21;101538.81;4815223;29;20053;-84
2021/03/15 05:16:05;;;;;;;8.27;3.40;;;;;;;7.42;86.25;101546.06;4843034;29;20071;-84
2021/03/15 05:18:33;;;;;;;16.13;3.60;;;;;;;7.40;86.32;101548.31;4843844;29;20470;-84
2021/03/15 05:21:01;;;;;;;10.05;2.75;;;;;;;7.38;86.10;101547.81;4828763;29;20049;-85
2021/03/15 05:23:28;;;;;;;19.63;3.10;;;;;;;7.31;86.24;101547.34;4861275;29;20065;-83
2021/03/15 05:25:55;;;;;;;11.68;2.53;;;;;;;7.29;86.51;101539.41;4861363;29;20129;-83
2021/03/15 05:28:22;;;;;;;16.13;3.92;;;;;;;7.27;86.41;101530.66;4858944;29;20508;-84
2021/03/15 05:30:50;;;;;;;18.23;3.05;;;;;;;7.25;86.40;101529.31;4828236;29;20099;-84
2021/03/15 05:33:21;;;;;;;21.25;3.50;;;;;;;7.22;86.64;101532.66;4854968;29;20050;-84
2021/03/15 05:35:51;;;;;;;10.05;3.50;;;;;;;7.18;86.34;101543.47;4845237;29;20471;-85
2021/03/15 05:38:17;;;;;;;21.13;6.45;;;;;;;7.16;86.74;101547.66;4844322;29;20045;-83
2021/03/15 05:40:45;;;;;;;15.82;2.50;;;;;;;7.13;86.55;101554.56;4860349;29;20128;-84
2021/03/15 05:43:24;;;;;;;16.38;3.38;;;;;;;7.12;86.62;101555.69;4860643;29;20106;-83
2021/03/15 05:46:30;;;;;;;13.18;2.72;;;;;;;7.07;87.01;101563.25;4830723;29;20108;-83
2021/03/15 05:49:38;;;;;;;17.58;3.38;;;;;;;7.09;86.56;101569.25;4844117;29;20057;-84
2021/03/15 05:52:06;;;;;;;15.70;3.20;;;;;;;7.07;86.95;101568.75;4847720;29;20459;-84
2021/03/15 05:54:55;;;;;;;17.40;3.72;;;;;;;7.03;86.79;101574.03;4861530;29;20067;-83
2021/03/15 05:57:50;;;;;;;14.75;2.97;;;;;;;7.00;87.01;101584.81;4846039;29;20108;-84
2021/03/15 06:00:41;;;;;;;14.48;3.85;;;;;;;7.02;86.73;101582.56;4845034;29;20059;-85
2021/03/15 06:03:36;;;;;;;20.90;3.75;;;;;;;7.00;86.63;101585.66;4862023;29;20045;-84
2021/03/15 06:06:07;;;;;;;14.25;2.88;;;;;;;6.97;86.73;101594.50;4860811;29;20443;-84
2021/03/15 06:08:39;;;;;;;21.58;4.10;;;;;;;6.97;86.61;101601.94;4844197;29;20045;-83
2021/03/15 06:11:12;;;;;;;16.25;4.75;;;;;;;6.93;86.71;101596.22;4867632;29;20128;-84
2021/03/15 06:13:40;;;;;;;14.48;2.72;;;;;;;6.92;86.77;101604.78;4858727;29;20671;-84
2021/03/15 06:16:08;;;;;;;16.77;6.57;;;;;;;6.92;86.80;101613.03;4861395;29;20743;-84
2021/03/15 06:18:35;;;;;;;16.70;3.40;;;;;;;6.89;86.91;101608.13;4859380;29;20656;-83
2021/03/15 06:21:02;;;;;;;22.33;4.22;;;;;;;6.86;86.81;101619.75;4841040;29;20103;-83
2021/03/15 06:23:30;;;;;;;11.55;2.45;;;;;;;6.86;86.79;101611.50;4842866;29;20069;-83
2021/03/15 06:25:57;;;;;;;15.73;4.43;;;;;;;6.81;86.74;101617.06;4861689;29;20049;-84
2021/03/15 06:28:24;;;;;;;13.43;2.83;;;;;;;6.82;86.62;101615.94;4845049;29;20050;-84
2021/03/15 06:30:52;;;;;;;18.55;3.63;;;;;;;6.82;86.56;101613.19;4833637;29;20129;-83
2021/03/15 06:33:19;;;;;;;14.20;3.03;;;;;;;6.79;86.93;101617.38;4860566;29;20063;-84
2021/03/15 06:35:57;;;;;;;9.30;2.85;;;;;;;6.80;86.94;101618.19;4862069;29;20113;-85
2021/03/15 06:38:24;;;;;;;13.40;3.05;;;;;;;6.77;86.90;101619.59;4827504;29;20045;-83
2021/03/15 06:41:03;;;;;;;13.40;3.15;;;;;;;6.75;86.89;101616.34;4858487;29;20045;-82
2021/03/15 06:43:31;;;;;;;9.63;3.70;;;;;;;6.74;87.00;101629.28;4844324;29;20050;-84
2021/03/15 06:45:58;;;;;;;13.27;3.00;;;;;;;6.72;86.99;101639.75;4826397;29;20050;-84
2021/03/15 06:48:26;;;;;;;17.42;3.00;;;;;;;6.71;87.22;101643.63;4842211;29;20124;-83
2021/03/15 06:50:54;;;;;;;15.43;3.67;;;;;;;6.73;87.29;101637.81;4827748;29;20057;-83
2021/03/15 06:53:21;;;;;;;10.40;3.38;;;;;;;6.74;87.12;101653.22;4844550;29;20049;-84
2021/03/15 06:55:52;;;;;;;10.55;2.80;;;;;;;6.78;86.82;101658.97;4856281;29;20463;-83
2021/03/15 06:58:30;;;;;;;14.63;2.20;;;;;;;6.75;86.96;101658.41;4833825;29;20457;-83
2021/03/15 07:01:26;;;;;;;15.68;2.88;;;;;;;6.75;87.11;101654.88;4859128;29;20140;-83
2021/03/15 07:04:08;;;;;;;15.40;2.65;;;;;;;6.78;87.08;101667.22;4856622;29;20090;-85
2021/03/15 07:06:36;;;;;;;10.27;2.92;;;;;;;6.79;86.77;101666.91;4856944;29;20054;-84
2021/03/15 07:09:09;;;;;;;9.90;2.85;;;;;;;6.75;87.13;101672.19;4837670;29;20057;-83
2021/03/15 07:11:36;;;;;;;13.73;2.33;;;;;;;6.79;87.19;101682.59;4873701;29;20044;-83
2021/03/15 07:14:03;;;;;;;17.73;3.47;;;;;;;6.82;87.11;101682.00;4872037;29;20042;-84
2021/03/15 07:16:33;;;;;;;13.50;3.78;;;;;;;6.82;86.91;101680.06;4840358;29;20065;-83
2021/03/15 07:19:19;;;;;;;14.52;2.95;;;;;;;6.84;87.00;101674.25;4836916;29;20057;-85
2021/03/15 07:21:45;;;;;;;14.38;3.42;;;;;;;6.86;86.79;101672.84;4826010;29;20132;-85
2021/03/15 07:24:12;;;;;;;11.45;2.88;;;;;;;6.84;86.94;101669.56;4825808;29;20046;-84
2021/03/15 07:26:46;;;;;;;12.27;2.67;;;;;;;6.86;86.91;101670.09;4826067;29;20494;-84
2021/03/15 07:29:15;;;;;;;7.90;2.17;;;;;;;6.85;87.24;101673.16;4841723;29;20056;-85
2021/03/15 07:31:46;;;;;;;14.93;2.65;;;;;;;6.87;87.11;101679.19;4850904;29;20073;-84
2021/03/15 07:34:14;;;;;;;16.52;2.70;;;;;;;6.90;87.53;101684.09;4859833;29;20095;-84
2021/03/15 07:36:58;;;;;;;15.38;2.65;;;;;;;6.91;87.54;101682.97;4854997;29;20037;-83
2021/03/15 07:39:51;;;;;;;15.88;2.47;;;;;;;6.99;87.51;101693.31;4847281;29;20046;-84
2021/03/15 07:42:21;;;;;;;9.43;2.40;;;;;;;7.06;87.62;101700.09;4826134;29;20054;-83
2021/03/15 07:44:47;;;;;;;12.93;2.72;;;;;;;7.15;87.42;101700.22;4853931;29;20084;-84
2021/03/15 07:47:25;;;;;;;11.13;2.33;;;;;;;7.21;87.46;101707.28;4842472;29;20088;-84
2021/03/15 07:49:58;;;;;;;11.68;2.53;;;;;;;7.32;87.54;101700.50;4839758;29;20414;-84
2021/03/15 07:52:39;;;;;;;13.45;2.45;;;;;;;7.38;87.67;101702.06;4841832;29;20094;-84
2021/03/15 07:55:06;;;;;;;16.60;3.67;;;;;;;7.41;87.44;101704.22;4850364;29;20050;-84
2021/03/15 07:57:33;;;;;;;11.43;2.95;;;;;;;7.48;87.37;101704.66;4859521;29;20405;-85
2021/03/15 08:00:00;;;;;;;12.90;2.60;;;;;;;7.57;87.74;101704.78;4857642;29;20037;-83
2021/03/15 08:02:29;;;;;;;20.08;3.15;;;;;;;7.66;87.56;101712.03;4857239;29;20052;-84
2021/03/15 08:04:56;;;;;;;14.95;2.50;;;;;;;7.77;87.59;101716.25;4850991;29;20116;-84
2021/03/15 08:07:28;;;;;;;12.27;2.42;;;;;;;7.87;87.48;101715.25;4859705;29;20101;-84
2021/03/15 08:09:56;;;;;;;9.43;2.03;;;;;;;7.96;87.53;101721.72;4858492;29;20056;-84
2021/03/15 08:12:31;;;;;;;;;;;;;;;8.05;87.77;101721.84;4860993;29;20508;-83
2021/03/15 08:15:01;;;;;;;9.63;2.55;;;;;;;8.14;87.48;101718.06;4878075;29;20376;-84
2021/03/15 08:17:29;;;;;;;5.70;2.20;;;;;;;8.25;87.50;101726.94;4877916;29;20068;-84
2021/03/15 08:19:57;;;;;;;9.23;3.40;;;;;;;8.34;87.49;101719.66;4865051;29;20060;-83
2021/03/15 08:22:28;;;;;;;6.53;2.40;;;;;;;8.38;87.10;101723.41;4859404;29;20423;-84
2021/03/15 08:24:58;;;;;;;9.05;2.55;;;;;;;8.42;87.25;101728.00;4859422;29;20049;-84
2021/03/15 08:27:28;;;;;;;9.02;2.17;;;;;;;8.52;87.33;101736.06;4859369;29;20486;-83
2021/03/15 08:29:58;;;;;;;12.65;2.90;;;;;;;8.53;87.13;101731.38;4858855;29;20054;-83
2021/03/15 08:32:27;;;;;;;6.88;2.17;;;;;;;8.58;87.03;101732.09;4859881;29;20102;-85
2021/03/15 08:34:54;;;;;;;11.98;3.08;;;;;;;8.65;87.01;101736.38;4858835;29;20124;-84
2021/03/15 08:37:55;;;;;;;13.85;2.88;;;;;;;8.73;87.00;101742.00;4856452;29;20056;-82
2021/03/15 08:40:40;;;;;;;10.30;2.95;;;;;;;8.82;86.95;101753.94;4845830;29;20046;-82
2021/03/15 08:43:22;;;;;;;8.30;2.70;;;;;;;8.87;86.51;101750.28;4857687;29;20055;-82
2021/03/15 08:45:52;;;;;;;12.07;2.70;;;;;;;8.93;86.70;101755.34;4865072;29;20133;-81
2021/03/15 08:48:20;;;;;;;9.50;2.70;;;;;;;8.97;86.47;101767.44;4856657;29;20081;-81
2021/03/15 08:50:49;;;;;;;13.30;2.88;;;;;;;9.02;86.53;101777.56;4843068;29;20053;-81
2021/03/15 08:53:41;;;;;;;13.93;2.70;;;;;;;9.06;86.03;101776.63;4857791;29;20050;-82
2021/03/15 08:56:16;;;;;;;5.53;2.17;;;;;;;9.13;85.99;101777.00;4854947;29;20065;-81
2021/03/15 08:58:45;;;;;;;7.88;2.42;;;;;;;9.18;86.19;101778.84;4841136;29;20098;-82
2021/03/15 09:01:13;;;;;;;11.02;2.75;;;;;;;9.23;85.90;101775.97;4841041;29;20054;-82
2021/03/15 09:03:58;;;;;;;15.35;4.82;;;;;;;9.28;85.76;101772.25;4846278;29;20046;-82
2021/03/15 09:06:36;;;;;;;12.25;3.22;;;;;;;9.33;85.39;101785.97;4857309;29;20041;-81
2021/03/15 09:09:09;;;;;;;8.32;2.72;;;;;;;9.37;85.32;101781.47;4854914;29;20062;-82
2021/03/15 09:11:38;;;;;;;10.88;2.50;;;;;;;9.34;85.10;101785.66;4834133;29;20057;-84
2021/03/15 09:14:14;;;;;;;18.38;3.50;;;;;;;9.34;84.93;101787.59;4825707;29;20041;-82
2021/03/15 09:16:46;;;;;;;10.57;2.80;;;;;;;9.37;85.02;101798.03;4814435;29;20042;-85
2021/03/15 09:19:47;;;;;;;6.50;2.78;;;;;;;9.41;84.48;101799.88;4835229;29;20064;-85
2021/03/15 09:22:22;;;;;;;13.75;3.65;;;;;;;9.46;84.64;101796.16;4793038;29;20568;-84
2021/03/15 09:24:53;;;;;;;16.80;3.25;;;;;;;9.51;84.69;101804.31;4837669;29;20070;-85
2021/03/15 09:27:30;;;;;;;11.45;2.55;;;;;;;9.56;84.50;101802.25;4823415;29;20453;-85
2021/03/15 09:30:30;;;;;;;9.43;3.40;;;;;;;9.69;84.25;101800.56;4840066;29;20054;-85
2021/03/15 09:33:17;;;;;;;12.68;3.00;;;;;;;9.95;84.49;101787.75;4825998;29;20498;-85
2021/03/15 09:35:44;;;;;;;7.78;2.20;;;;;;;10.28;84.45;101797.41;4831441;29;20595;-85
2021/03/15 09:38:13;;;;;;;8.57;2.47;;;;;;;10.63;84.50;101797.56;4833044;29;20133;-85
2021/03/15 09:40:50;;;;;;;7.10;3.50;;;;;;;10.81;83.63;101785.41;4830711;29;20065;-85
2021/03/15 09:43:32;;;;;;;7.68;2.00;;;;;;;10.83;82.48;101788.69;4828906;29;20050;-87
2021/03/15 09:46:01;;;;;;;12.35;2.80;;;;;;;10.88;82.41;101791.31;4839951;29;20129;-86
2021/03/15 09:48:29;;;;;;;6.90;2.03;;;;;;;10.93;81.70;101791.16;4833140;29;20486;-85
2021/03/15 09:51:01;;;;;;;6.57;2.28;;;;;;;10.97;81.36;101804.06;4832884;29;20573;-86
2021/03/15 09:53:27;;;;;;;9.73;2.17;;;;;;;10.98;81.81;101802.09;4829021;29;20468;-85
2021/03/15 09:56:10;;;;;;;9.45;2.58;;;;;;;10.89;79.87;101812.34;4825013;29;20545;-85
2021/03/15 09:58:38;;;;;;;6.35;2.50;;;;;;;10.87;80.80;101803.53;4827894;29;20149;-85
2021/03/15 10:01:10;;;;;;;12.57;2.17;;;;;;;10.90;80.84;101803.72;4830631;29;20479;-84
2021/03/15 10:03:37;;;;;;;10.77;2.60;;;;;;;10.90;80.53;101805.66;4812918;29;20050;-84
2021/03/15 10:06:04;;;;;;;10.02;2.30;;;;;;;10.95;80.55;101811.06;4821819;29;20054;-85
2021/03/15 10:08:31;;;;;;;12.23;2.55;;;;;;;10.98;80.39;101802.91;4840812;29;20054;-84
2021/03/15 10:10:59;;;;;;;5.90;2.03;;;;;;;11.01;80.45;101812.53;4854260;29;20077;-84
2021/03/15 10:13:26;;;;;;;5.63;2.05;;;;;;;11.01;80.08;101805.03;4849277;29;20087;-85
2021/03/15 10:15:53;;;;;;;6.22;1.92;;;;;;;11.05;80.01;101807.97;4836165;29;20038;-84
2021/03/15 10:18:21;;;;;;;6.72;2.17;;;;;;;11.07;80.04;101810.44;4842069;29;20451;-85
2021/03/15 10:20:50;;;;;;;6.78;3.50;;;;;;;11.09;79.85;101814.53;4860773;29;20409;-84
2021/03/15 10:23:22;;;;;;;5.97;1.85;;;;;;;11.09;79.11;101819.25;4858342;29;20056;-85
2021/03/15 10:26:06;;;;;;;4.75;1.83;;;;;;;11.07;78.47;101818.75;4858142;29;20042;-85
2021/03/15 10:28:33;;;;;;;9.85;2.08;;;;;;;11.14;79.38;101819.91;4845508;29;20077;-85
2021/03/15 10:31:18;;;;;;;7.88;1.90;;;;;;;11.20;78.76;101818.59;4841642;29;20114;-85
2021/03/15 10:33:45;;;;;;;9.38;2.15;;;;;;;11.22;78.54;101830.19;4838647;29;20082;-85
2021/03/15 10:36:23;;;;;;;6.43;1.85;;;;;;;11.27;78.56;101827.28;4841518;29;20051;-87
2021/03/15 10:38:50;;;;;;;11.95;2.10;;;;;;;11.32;78.76;101829.88;4840833;29;20097;-87
2021/03/15 10:41:17;;;;;;;10.07;2.10;;;;;;;11.39;78.68;101821.91;4827542;29;20046;-87
2021/03/15 10:43:45;;;;;;;7.38;2.13;;;;;;;11.47;78.43;101829.41;4853390;29;20066;-87
2021/03/15 10:46:26;;;;;;;9.23;2.00;;;;;;;11.46;77.17;101826.97;4846691;29;20046;-86
2021/03/15 10:48:53;;;;;;;11.60;2.10;;;;;;;11.54;77.76;101826.94;4832535;29;20050;-86
2021/03/15 10:51:19;;;;;;;5.50;1.60;;;;;;;11.67;77.94;101819.63;4854665;29;20107;-87
2021/03/15 10:54:06;;;;;;;8.73;1.55;;;;;;;11.72;77.56;101825.06;4854719;29;20038;-86
2021/03/15 10:57:16;;;;;;;7.53;1.73;;;;;;;11.77;76.26;101832.38;4840076;29;20448;-85
2021/03/15 10:59:43;;;;;;;7.07;1.75;;;;;;;11.82;77.25;101841.38;4855879;29;20049;-86
2021/03/15 11:02:10;;;;;;;7.95;1.50;;;;;;;11.83;76.98;101847.72;4823264;29;20131;-84
2021/03/15 11:04:40;;;;;;;5.97;2.10;;;;;;;11.84;76.82;101841.03;4847014;29;20046;-86
2021/03/15 11:07:20;;;;;;;4.53;1.77;;;;;;;11.83;74.47;101848.56;4848961;29;20114;-86
2021/03/15 11:09:53;;;;;;;7.72;2.17;;;;;;;11.78;75.89;101845.13;4854494;29;20564;-87
2021/03/15 11:12:52;;;;;;;9.60;1.52;;;;;;;11.78;75.80;101840.38;4872227;29;20049;-86
2021/03/15 11:15:36;;;;;;;5.90;2.13;;;;;;;11.82;76.14;101841.38;4832810;29;20057;-86
2021/03/15 11:18:10;;;;;;;15.23;3.17;;;;;;;11.90;75.99;101842.50;4856635;29;20060;-86
2021/03/15 11:20:44;;;;;;;7.63;1.70;;;;;;;11.91;75.83;101842.19;4826607;29;20506;-85
2021/03/15 11:23:13;;;;;;;6.05;1.60;;;;;;;11.86;75.45;101838.75;4850615;29;20383;-86
2021/03/15 11:25:40;;;;;;;8.60;2.05;;;;;;;11.85;75.71;101842.66;4854660;29;20133;-85
2021/03/15 11:28:14;;;;;;;9.82;1.58;;;;;;;11.85;75.21;101851.00;4840094;29;20161;-84
2021/03/15 11:30:44;;;;;;;7.97;1.63;;;;;;;11.83;75.26;101850.50;4835487;29;20056;-86
2021/03/15 11:33:12;;;;;;;8.15;1.70;;;;;;;11.81;75.33;101845.28;4843352;29;20121;-85
2021/03/15 11:35:40;;;;;;;8.38;1.60;;;;;;;11.78;75.34;101856.22;4849761;29;20046;-84
2021/03/15 11:38:07;;;;;;;7.78;2.38;;;;;;;11.79;75.74;101857.84;4824558;29;20061;-84
2021/03/15 11:40:42;;;;;;;7.47;1.88;;;;;;;11.79;75.91;101858.66;4857411;29;20470;-84
2021/03/15 11:43:12;;;;;;;5.88;1.40;;;;;;;11.79;75.65;101857.84;4854271;29;20520;-84
2021/03/15 11:45:39;;;;;;;3.97;1.23;;;;;;;11.74;75.99;101858.81;4856086;29;20050;-84
2021/03/15 11:48:07;;;;;;;5.30;1.50;;;;;;;11.64;76.35;101859.13;4839007;29;20054;-84